MDT,Max TemperatureF,Mean TemperatureF,Min TemperatureF,Max Dew PointF,MeanDew PointF,Min DewpointF,Max Humidity, Mean Humidity, Min Humidity, Max Sea Level PressureIn, Mean Sea Level PressureIn, Min Sea Level PressureIn, Max VisibilityMiles, Mean VisibilityMiles, Min VisibilityMiles, Max Wind SpeedMPH, Mean Wind SpeedMPH, Max Gust SpeedMPH,PrecipitationIn, CloudCover, Events, WindDirDegrees
2012-9-1,78,69,60,50,45,37,59,42,27,30.09,30.00,29.95,10,10,10,18,10,37,0.00,2,,244
2012-9-2,60,60,60,39,39,39,45,45,45,30.10,30.08,30.06,10,10,10,18,17,26,0.00,1,,235
2012-9-3,82,65,48,28,21,16,40,17,10,30.15,30.09,30.03,10,10,10,16,7,29,0.00,0,,248
2012-9-4,73,60,46,36,27,16,54,28,18,30.21,30.09,30.03,10,10,4,17,8,23,0.00,0,,22
2012-9-5,82,63,44,37,31,21,66,38,10,30.21,30.07,29.94,10,10,6,15,5,34,0.00,0,,174
2012-9-6,62,55,48,43,36,25,71,46,31,30.26,30.12,30.00,10,10,9,22,7,25,0.00,1,,2
2012-9-7,71,55,39,43,39,34,93,56,27,30.37,30.31,30.25,10,10,9,9,4,,0.00,1,,40
2012-9-8,78,63,48,39,35,28,62,37,18,30.39,30.31,30.20,10,9,3,13,6,16,0.00,0,,151
2012-9-9,87,69,51,37,31,25,54,25,10,30.20,30.05,29.92,10,10,2,14,6,20,0.00,0,,232
2012-9-10,84,70,57,45,31,16,43,24,10,29.94,29.89,29.81,10,10,10,15,9,30,0.00,0,,228
2012-9-11,64,55,46,34,28,12,50,35,20,30.20,30.03,29.92,10,10,10,18,8,24,0.00,0,,359
2012-9-12,60,48,35,23,17,9,39,27,17,30.39,30.29,30.20,10,10,6,16,6,22,0.00,0,,24
2012-9-13,71,54,37,27,22,18,52,28,16,30.46,30.42,30.38,10,10,10,14,6,,0.00,0,,322
2012-9-14,82,66,51,36,22,14,39,21,10,30.43,30.30,30.19,10,9,2,14,6,17,0.00,0,,177
2012-9-15,84,70,57,25,18,10,20,12,10,30.20,30.15,30.07,10,10,9,17,8,28,0.00,1,,257
2012-9-16,71,60,48,39,33,25,62,39,20,30.25,30.18,30.13,10,10,8,21,7,29,0.00,2,,8
2012-9-17,66,52,37,41,35,28,81,53,30,30.25,30.20,30.13,10,10,10,9,4,,0.00,0,,97
2012-9-18,82,62,42,39,32,25,66,34,14,30.18,30.11,30.02,10,10,5,15,5,24,0.00,0,,264
2012-9-19,73,62,50,36,30,25,43,30,18,30.27,30.19,30.09,10,10,10,12,6,16,0.00,0,,19
2012-9-20,73,58,44,37,32,27,57,34,22,30.23,30.19,30.15,10,10,8,10,4,,0.00,0,,92
2012-9-21,77,64,51,37,32,27,47,32,21,30.25,30.22,30.17,10,10,8,14,4,17,0.00,0,,317
2012-9-22,75,62,48,41,34,30,58,38,24,30.24,30.19,30.13,10,10,10,12,5,,0.00,0,,217
2012-9-23,71,58,46,41,35,28,62,39,27,30.17,30.14,30.10,10,10,10,9,4,,0.00,1,,34
2012-9-24,73,60,48,43,37,30,58,41,27,30.12,30.05,29.97,10,10,10,13,4,16,0.00,1,,296
2012-9-25,71,63,55,45,39,28,67,44,20,30.05,30.00,29.97,10,10,10,14,5,,0.00,4,,282
2012-9-26,71,62,53,41,37,28,54,42,20,30.16,30.09,30.04,10,10,10,13,6,16,0.00,2,,338
2012-9-27,69,55,41,45,38,32,71,51,33,30.21,30.16,30.12,10,10,10,10,4,,0.00,0,,93
2012-9-28,75,60,44,48,40,34,77,49,22,30.15,30.09,30.01,10,10,4,18,5,34,0.10,2,Thunderstorm,72
2012-9-29,71,61,51,43,39,36,71,43,29,30.19,30.11,30.05,10,10,10,16,7,23,0.00,4,,255
2012-9-30,68,60,51,43,39,36,63,46,35,30.35,30.23,30.18,10,10,10,14,7,16,0.00,3,,323